Time;durP1;ratioP1;P1;durP2;ratioP2;P2;SDS_P1;SDS_P2;PMS_P1;PMS_P2;Temp;Humidity;BMP_temperature;BMP_pressure;BME280_temperature;BME280_humidity;BME280_pressure;Samples;Min_cycle;Max_cycle;Signal;HPM_P1;HPM_P2
2022/06/16 00:00:56;;;;;;;;;14.20;12.20;;;;;23.44;39.22;99686.84;5086593;28;9597;-76
2022/06/16 00:03:25;;;;;;;;;16.80;16.80;;;;;23.41;39.36;99687.88;5085202;28;8864;-76
2022/06/16 00:05:53;;;;;;;;;15.40;14.60;;;;;23.41;39.67;99679.06;5036779;28;8859;-74
2022/06/16 00:08:22;;;;;;;;;14.20;13.20;;;;;23.39;39.82;99679.13;5069059;28;8857;-76
2022/06/16 00:13:39;;;;;;;;;19.00;17.80;;;;;23.39;40.10;99683.59;5069652;28;8867;-77
2022/06/16 00:16:10;;;;;;;;;18.20;18.00;;;;;23.35;40.08;99674.91;5069559;28;9683;-76
2022/06/16 00:18:40;;;;;;;;;16.60;14.00;;;;;23.33;40.11;99671.47;5084760;28;8861;-76
2022/06/16 00:21:10;;;;;;;;;17.00;17.00;;;;;23.30;40.05;99680.44;5086284;28;8856;-76
2022/06/16 00:23:39;;;;;;;;;16.00;15.00;;;;;23.25;40.19;99671.84;5086182;28;8934;-76
2022/06/16 00:26:12;;;;;;;;;16.00;14.00;;;;;23.24;40.35;99678.09;5087995;28;8841;-75
2022/06/16 00:28:41;;;;;;;;;12.00;12.00;;;;;23.17;40.00;99674.03;5108814;28;8836;-76
2022/06/16 00:31:13;;;;;;;;;14.60;14.20;;;;;23.12;40.06;99673.41;5107429;28;8843;-76
2022/06/16 00:33:42;;;;;;;;;14.80;14.20;;;;;23.04;40.24;99680.91;5090888;28;8870;-77
2022/06/16 00:36:11;;;;;;;;;17.40;16.40;;;;;23.00;40.52;99668.66;5087369;28;8835;-77
2022/06/16 00:38:41;;;;;;;;;17.40;14.00;;;;;22.97;40.47;99670.53;5088260;27;9712;-75
2022/06/16 00:41:10;;;;;;;;;16.20;16.00;;;;;22.93;40.49;99668.97;5114837;27;8828;-76
2022/06/16 00:43:39;;;;;;;;;14.80;14.80;;;;;22.91;40.49;99662.88;5131309;27;8831;-77
2022/06/16 00:46:14;;;;;;;;;13.40;13.40;;;;;22.89;40.47;99658.56;5131906;27;8828;-77
2022/06/16 00:48:46;;;;;;;;;16.00;14.80;;;;;22.90;40.48;99662.94;5131566;27;8862;-78
2022/06/16 00:51:20;;;;;;;;;15.60;15.60;;;;;22.83;40.54;99662.38;5084795;28;9004;-78
2022/06/16 00:53:50;;;;;;;;;14.80;14.80;;;;;22.82;40.37;99660.66;5035511;28;8841;-76
2022/06/16 00:56:21;;;;;;;;;15.80;14.60;;;;;22.77;40.52;99658.22;5085892;28;8877;-77
2022/06/16 00:58:54;;;;;;;;;16.00;16.00;;;;;22.77;40.43;99649.38;5088479;28;8868;-78
2022/06/16 01:01:26;;;;;;;;;15.20;15.20;;;;;22.77;40.57;99646.72;5106652;28;9700;-75
2022/06/16 01:06:49;;;;;;;;;15.00;15.00;;;;;22.74;40.71;99645.09;5025130;28;8838;-76
2022/06/16 01:09:20;;;;;;;;;14.60;13.60;;;;;22.73;40.91;99646.00;4999232;28;8871;-78
2022/06/16 01:15:07;;;;;;;;;15.60;15.60;;;;;22.73;40.83;99639.84;5009515;28;8843;-75
2022/06/16 01:17:49;;;;;;;;;17.20;17.00;;;;;22.67;41.19;99640.16;5009855;28;8881;-75
2022/06/16 01:20:31;;;;;;;;;15.00;15.00;;;;;22.62;41.69;99648.34;5024075;28;8866;-76
2022/06/16 01:23:31;;;;;;;;;20.60;17.40;;;;;22.60;40.94;99649.34;5058107;28;8995;-75
2022/06/16 01:26:20;;;;;;;;;17.20;17.20;;;;;22.49;42.15;99647.22;4990124;28;8873;-75
2022/06/16 01:29:07;;;;;;;;;17.60;15.80;;;;;22.43;42.06;99643.06;4951289;28;8898;-76
2022/06/16 01:31:45;;;;;;;;;20.60;18.40;;;;;22.38;42.55;99645.06;4951742;28;8903;-77
2022/06/16 01:34:23;;;;;;;;;23.00;21.25;;;;;22.35;42.30;99643.41;4957412;28;8902;-75
2022/06/16 01:36:58;;;;;;;;;18.20;18.20;;;;;22.33;43.07;99639.97;4989937;28;8861;-77
2022/06/16 01:39:35;;;;;;;;;19.60;17.80;;;;;22.31;43.08;99644.50;4989896;28;8885;-75
2022/06/16 01:42:10;;;;;;;;;21.00;20.40;;;;;22.30;43.09;99644.56;4989425;28;8876;-75
2022/06/16 01:44:45;;;;;;;;;17.60;17.60;;;;;22.29;43.67;99640.22;4985041;28;8856;-75
2022/06/16 01:47:18;;;;;;;;;17.20;17.20;;;;;22.25;43.70;99639.50;5028908;28;8860;-76
2022/06/16 01:49:52;;;;;;;;;19.20;19.20;;;;;22.23;43.50;99646.63;5028836;28;8856;-76
2022/06/16 01:52:26;;;;;;;;;22.60;21.20;;;;;22.20;43.49;99644.97;4996431;28;8879;-76
2022/06/16 01:55:00;;;;;;;;;18.40;17.20;;;;;22.17;43.58;99639.81;5011417;28;8872;-77
2022/06/16 01:57:35;;;;;;;;;15.20;15.20;;;;;22.15;43.82;99641.66;5011840;28;8887;-75
2022/06/16 02:00:10;;;;;;;;;20.00;18.40;;;;;22.12;43.82;99636.50;5006385;28;9034;-76
2022/06/16 02:02:54;;;;;;;;;19.00;17.60;;;;;22.09;43.98;99639.28;5004555;28;8843;-76
2022/06/16 02:05:29;;;;;;;;;22.00;20.60;;;;;22.05;44.38;99635.06;5071326;28;8900;-75
2022/06/16 02:08:03;;;;;;;;;23.40;21.00;;;;;22.02;45.10;99645.81;5076005;28;8863;-76
2022/06/16 02:10:38;;;;;;;;;20.00;20.00;;;;;21.97;44.88;99638.06;5108486;28;8883;-76
2022/06/16 02:13:10;;;;;;;;;17.00;16.80;;;;;21.93;45.10;99627.69;5108466;28;8911;-78
2022/06/16 02:15:53;;;;;;;;;23.80;22.20;;;;;21.84;44.08;99628.94;5088507;28;8903;-77
2022/06/16 02:18:26;;;;;;;;;22.25;21.75;;;;;21.81;43.93;99631.72;5073268;28;8866;-77
2022/06/16 02:21:00;;;;;;;;;21.75;21.50;;;;;21.76;44.05;99633.75;5092067;28;8993;-78
2022/06/16 02:23:30;;;;;;;;;22.80;21.80;;;;;21.75;43.69;99630.22;5108430;28;8840;-77
2022/06/16 02:25:59;;;;;;;;;22.20;22.20;;;;;21.75;44.37;99626.72;5091809;28;8844;-78
2022/06/16 02:28:29;;;;;;;;;18.80;18.80;;;;;21.74;44.44;99625.84;5075229;28;9544;-78
2022/06/16 02:31:16;;;;;;;;;20.80;18.60;;;;;21.76;44.07;99631.09;5091370;28;8836;-77
2022/06/16 02:33:58;;;;;;;;;21.60;19.80;;;;;21.76;43.89;99634.63;5090557;28;8879;-77
2022/06/16 02:36:50;;;;;;;;;17.40;17.40;;;;;21.75;44.00;99634.69;5108703;28;8851;-75
2022/06/16 02:39:34;;;;;;;;;18.00;18.00;;;;;21.72;44.18;99635.69;5100321;27;8828;-77
2022/06/16 02:42:13;;;;;;;;;20.80;19.80;;;;;21.70;44.25;99631.34;5133954;27;8863;-76
2022/06/16 02:45:02;;;;;;;;;18.80;18.40;;;;;21.68;44.58;99639.41;5134677;27;8954;-76
2022/06/16 02:47:46;;;;;;;;;19.60;19.60;;;;;21.67;44.50;99642.13;5134474;27;8843;-78
2022/06/16 02:50:29;;;;;;;;;20.60;19.80;;;;;21.64;44.69;99635.16;5116906;27;9590;-76
2022/06/16 02:53:07;;;;;;;;;19.60;19.60;;;;;21.59;44.26;99639.81;5110940;27;8912;-77
2022/06/16 02:55:41;;;;;;;;;21.50;21.50;;;;;21.55;44.51;99639.09;5134139;27;8827;-76
2022/06/16 02:58:16;;;;;;;;;22.00;21.20;;;;;21.51;44.59;99642.81;5116825;27;8843;-76
2022/06/16 03:00:53;;;;;;;;;21.40;19.00;;;;;21.51;44.04;99647.25;5133565;27;8897;-77
2022/06/16 03:03:25;;;;;;;;;21.60;21.20;;;;;21.49;44.18;99639.34;5152059;27;8923;-77
2022/06/16 03:06:12;;;;;;;;;22.60;22.00;;;;;21.40;44.33;99643.25;5127063;27;8938;-76
2022/06/16 03:08:49;;;;;;;;;21.80;21.00;;;;;21.42;44.53;99644.03;5109448;28;8832;-75
2022/06/16 03:11:17;;;;;;;;;21.50;21.50;;;;;21.43;43.92;99645.75;5092109;28;8859;-75
2022/06/16 03:13:46;;;;;;;;;24.25;22.75;;;;;21.41;43.99;99639.66;5092129;28;9697;-77
2022/06/16 03:16:28;;;;;;;;;19.00;18.00;;;;;21.51;43.57;99641.94;5129509;27;8824;-74
2022/06/16 03:18:59;;;;;;;;;19.60;19.40;;;;;21.53;43.59;99634.75;5133248;27;9591;-75
2022/06/16 03:21:31;;;;;;;;;19.60;19.60;;;;;21.59;43.66;99634.50;5133038;27;8843;-76
2022/06/16 03:23:59;;;;;;;;;21.80;21.00;;;;;21.69;43.53;99645.56;5126446;27;8849;-76
2022/06/16 03:26:30;;;;;;;;;20.40;19.00;;;;;21.75;43.57;99632.88;5129584;27;8858;-75
2022/06/16 03:29:00;;;;;;;;;21.25;21.00;;;;;21.83;43.95;99643.13;5095933;27;8845;-76
2022/06/16 03:31:29;;;;;;;;;22.00;19.25;;;;;21.90;44.22;99641.94;5112355;27;8845;-78
2022/06/16 03:34:00;;;;;;;;;21.50;20.50;;;;;21.98;44.10;99645.13;5112608;27;8834;-77
2022/06/16 03:36:35;;;;;;;;;21.75;21.75;;;;;22.07;43.74;99641.16;5132666;27;8843;-75
2022/06/16 03:39:05;;;;;;;;;24.50;24.00;;;;;22.12;43.35;99644.47;5081349;27;8847;-77
2022/06/16 03:41:34;;;;;;;;;23.00;22.80;;;;;22.14;43.69;99639.94;5041036;28;8862;-76
2022/06/16 03:44:06;;;;;;;;;25.25;24.25;;;;;22.20;43.85;99638.81;5058599;28;8855;-77
2022/06/16 03:46:35;;;;;;;;;25.50;24.00;;;;;22.29;44.50;99637.56;5077861;28;8874;-77
2022/06/16 03:49:15;;;;;;;;;25.25;25.25;;;;;22.37;44.28;99632.72;5090039;28;8881;-76
2022/06/16 03:51:50;;;;;;;;;27.25;25.25;;;;;22.37;44.90;99643.34;5089948;28;8890;-77
2022/06/16 03:54:30;;;;;;;;;22.50;22.50;;;;;22.39;44.70;99637.03;5090010;28;8851;-75
2022/06/16 03:57:03;;;;;;;;;25.25;22.50;;;;;22.43;44.94;99635.06;5071954;28;8897;-75
2022/06/16 03:59:32;;;;;;;;;25.75;24.75;;;;;22.54;44.34;99642.53;5107138;28;8985;-76
2022/06/16 04:02:14;;;;;;;;;23.00;22.00;;;;;22.64;43.44;99629.66;5106838;28;8936;-76
2022/06/16 04:04:45;;;;;;;;;23.25;22.50;;;;;22.71;42.85;99626.63;5106778;28;8864;-75
2022/06/16 04:07:13;;;;;;;;;21.25;20.75;;;;;22.82;42.49;99631.41;5090068;28;8891;-77
2022/06/16 04:10:08;;;;;;;;;22.75;22.50;;;;;22.97;42.24;99630.66;5076542;28;8874;-74
2022/06/16 04:12:39;;;;;;;;;21.75;20.00;;;;;23.09;41.68;99637.16;5072132;28;8858;-75
2022/06/16 04:15:12;;;;;;;;;25.25;25.25;;;;;23.20;41.36;99633.97;5037445;28;8834;-77
2022/06/16 04:17:42;;;;;;;;;19.75;19.75;;;;;23.31;41.06;99630.78;5046394;28;9624;-76
2022/06/16 04:20:38;;;;;;;;;23.25;22.00;;;;;23.42;40.61;99631.06;5065429;28;8852;-76
2022/06/16 04:23:16;;;;;;;;;19.25;19.25;;;;;23.41;40.65;99637.31;5062394;28;8830;-76
2022/06/16 04:25:46;;;;;;;;;22.80;22.80;;;;;23.49;40.33;99637.78;5068981;28;8965;-75
2022/06/16 04:28:18;;;;;;;;;19.40;18.00;;;;;23.54;39.67;99640.22;5069004;28;8865;-76
2022/06/16 04:30:50;;;;;;;;;26.25;25.00;;;;;23.44;40.26;99642.50;5064699;28;8887;-76
2022/06/16 04:33:22;;;;;;;;;20.60;18.60;;;;;23.23;40.57;99639.16;5032870;28;8890;-76
2022/06/16 04:35:54;;;;;;;;;22.00;20.50;;;;;23.11;41.69;99637.94;5049111;28;8910;-77
2022/06/16 04:38:27;;;;;;;;;28.75;26.00;;;;;23.16;42.06;99643.06;5065583;28;8994;-76
2022/06/16 04:40:59;;;;;;;;;18.25;18.25;;;;;23.09;41.86;99638.97;5045404;28;8858;-77
2022/06/16 04:43:31;;;;;;;;;22.50;22.50;;;;;23.03;41.26;99647.25;5021823;28;8865;-76
2022/06/16 04:46:04;;;;;;;;;20.60;20.60;;;;;22.95;41.21;99645.81;5068601;28;8967;-76
2022/06/16 04:48:39;;;;;;;;;17.60;17.60;;;;;22.92;41.08;99650.44;5055828;28;8868;-76
2022/06/16 04:51:17;;;;;;;;;19.00;19.00;;;;;23.06;41.15;99652.41;5048678;28;8840;-76
2022/06/16 04:53:52;;;;;;;;;20.60;19.00;;;;;23.22;40.51;99644.53;5048501;28;8856;-76
2022/06/16 04:56:40;;;;;;;;;21.60;20.40;;;;;23.48;39.28;99649.38;5007337;28;8858;-76
2022/06/16 04:59:27;;;;;;;;;18.40;16.60;;;;;23.55;38.50;99647.22;5025135;28;8864;-78
2022/06/16 05:02:19;;;;;;;;;20.60;19.40;;;;;23.50;38.82;99644.81;4984258;28;8970;-78
2022/06/16 05:05:17;;;;;;;;;17.80;16.80;;;;;23.66;37.74;99642.19;4912827;29;8871;-77
2022/06/16 05:08:02;;;;;;;;;19.20;18.20;;;;;23.68;37.60;99645.63;4909254;29;8853;-77
2022/06/16 05:11:01;;;;;;;;;18.80;18.80;;;;;23.69;37.27;99654.50;4882620;29;9051;-76
2022/06/16 05:14:03;;;;;;;;;23.00;21.25;;;;;23.83;36.83;99649.31;4887641;29;8966;-77
2022/06/16 05:17:05;;;;;;;;;16.00;15.60;;;;;23.96;36.16;99652.19;4891139;29;8872;-77
2022/06/16 05:41:32;;;;;;;;;16.80;16.00;;;;;24.99;35.39;99666.91;4838921;29;8893;-75
2022/06/16 05:44:18;;;;;;;;;16.20;16.20;;;;;25.28;34.12;99668.75;4893958;29;8880;-78
2022/06/16 05:47:09;;;;;;;;;12.40;12.40;;;;;25.00;33.84;99669.50;4893328;29;8885;-77
2022/06/16 05:49:42;;;;;;;;;10.20;10.20;;;;;24.83;33.46;99669.63;4906828;29;8877;-77
2022/06/16 05:52:13;;;;;;;;;11.60;10.80;;;;;24.68;34.34;99679.34;4907056;29;8984;-76
2022/06/16 05:54:48;;;;;;;;;17.20;17.20;;;;;24.91;34.76;99672.69;4905071;29;8872;-77
2022/06/16 05:57:18;;;;;;;;;16.80;16.80;;;;;25.12;34.21;99673.25;4932482;28;9018;-76
2022/06/16 05:59:46;;;;;;;;;16.40;13.40;;;;;25.35;33.63;99671.94;4968810;28;8973;-76
2022/06/16 06:02:20;;;;;;;;;14.20;13.00;;;;;25.48;33.61;99675.59;4977687;28;9829;-77
2022/06/16 06:04:49;;;;;;;;;13.00;13.00;;;;;25.74;33.68;99677.63;4992707;28;8859;-76
2022/06/16 06:07:18;;;;;;;;;15.40;15.40;;;;;26.06;32.44;99671.16;5008656;28;8862;-77
2022/06/16 06:18:21;;;;;;;;;13.20;13.20;;;;;26.19;33.17;99671.25;5094142;27;8833;-76
2022/06/16 06:20:51;;;;;;;;;13.80;13.80;;;;;26.39;33.09;99678.00;5113403;27;9014;-76
2022/06/16 06:23:19;;;;;;;;;13.60;13.60;;;;;26.64;33.63;99677.31;5116271;27;8841;-77
2022/06/16 06:25:48;;;;;;;;;15.40;15.00;;;;;26.48;34.09;99681.88;5088349;28;8885;-77
2022/06/16 06:28:20;;;;;;;;;16.60;14.00;;;;;25.64;35.52;99691.53;5074849;28;8826;-77
2022/06/16 06:30:49;;;;;;;;;16.80;16.80;;;;;25.45;36.08;99688.25;5083313;27;8940;-78
2022/06/16 06:33:19;;;;;;;;;15.60;15.00;;;;;25.38;36.07;99686.91;5086591;28;8966;-80
2022/06/16 06:35:48;;;;;;;;;20.25;17.75;;;;;25.42;37.08;99683.09;5074716;28;9023;-78
2022/06/16 06:38:17;;;;;;;;;19.80;18.60;;;;;25.83;37.55;99691.25;5075981;28;8839;-81
2022/06/16 06:40:45;;;;;;;;;17.00;15.40;;;;;26.15;37.03;99684.91;5126810;27;8969;-81
2022/06/16 06:43:14;;;;;;;;;16.40;16.40;;;;;26.23;37.00;99683.44;5089889;28;8837;-78
2022/06/16 06:45:42;;;;;;;;;20.20;20.20;;;;;26.29;35.99;99687.56;5107814;28;8848;-81
2022/06/16 06:48:11;;;;;;;;;16.00;15.40;;;;;25.56;37.88;99684.91;5090835;28;8852;-78
2022/06/16 06:50:41;;;;;;;;;19.80;19.20;;;;;25.64;37.58;99693.34;5091128;28;8877;-76
2022/06/16 06:53:10;;;;;;;;;17.60;17.00;;;;;25.58;37.42;99686.56;5113057;27;8857;-75
2022/06/16 06:55:43;;;;;;;;;19.00;19.00;;;;;25.45;38.12;99681.09;5124595;27;8828;-76
2022/06/16 06:58:16;;;;;;;;;15.00;15.00;;;;;25.71;37.96;99680.47;5108019;28;8831;-77
2022/06/16 07:00:45;;;;;;;;;20.00;18.25;;;;;26.08;37.19;99675.56;5117445;27;8849;-75
2022/06/16 07:03:14;;;;;;;;;23.00;22.75;;;;;26.37;36.83;99671.91;5110537;27;8837;-75
2022/06/16 07:05:44;;;;;;;;;17.40;17.40;;;;;26.58;36.13;99664.31;5132590;27;8861;-76
2022/06/16 07:08:13;;;;;;;;;20.00;19.50;;;;;26.75;36.34;99662.34;5137581;27;8875;-76
2022/06/16 07:10:42;;;;;;;;;17.20;16.00;;;;;27.04;34.91;99666.63;5136552;27;8841;-75
2022/06/16 07:13:14;;;;;;;;;20.20;18.20;;;;;27.29;34.32;99672.19;5122885;27;8837;-76
2022/06/16 07:15:46;;;;;;;;;14.60;14.00;;;;;27.36;32.60;99663.63;5131495;27;8857;-78
2022/06/16 07:18:15;;;;;;;;;10.60;10.60;;;;;27.59;30.26;99664.72;5111755;27;8857;-78
2022/06/16 07:20:47;;;;;;;;;10.40;10.40;;;;;27.80;29.02;99661.50;5084415;28;8978;-77
2022/06/16 07:23:18;;;;;;;;;10.60;10.60;;;;;27.96;28.53;99662.19;5037393;28;8871;-76
2022/06/16 07:25:48;;;;;;;;;9.60;8.20;;;;;28.17;28.05;99664.28;5069547;28;8840;-77
2022/06/16 07:28:18;;;;;;;;;9.40;9.40;;;;;28.37;28.23;99663.72;5069795;28;8839;-75
2022/06/16 07:30:47;;;;;;;;;10.00;9.00;;;;;28.55;28.48;99658.84;5087002;28;9596;-75
2022/06/16 07:33:15;;;;;;;;;11.00;11.00;;;;;28.72;27.71;99662.13;5086697;28;8983;-74
2022/06/16 07:35:46;;;;;;;;;7.40;7.40;;;;;28.85;27.33;99657.53;5067227;28;8935;-76
2022/06/16 07:38:14;;;;;;;;;10.60;10.00;;;;;28.92;26.69;99652.56;5086453;28;8836;-74
2022/06/16 07:40:43;;;;;;;;;10.00;8.80;;;;;29.02;26.85;99645.53;5085974;28;8835;-75
2022/06/16 07:43:11;;;;;;;;;8.00;8.00;;;;;29.05;26.76;99650.66;5069663;28;8936;-73
2022/06/16 07:45:40;;;;;;;;;8.00;8.00;;;;;29.10;26.24;99650.31;5084007;28;8867;-73
2022/06/16 07:48:09;;;;;;;;;9.60;9.00;;;;;29.19;26.18;99646.97;5086474;28;8843;-74
2022/06/16 07:50:38;;;;;;;;;8.80;8.40;;;;;29.27;26.08;99651.75;5086512;28;8835;-73
2022/06/16 07:53:08;;;;;;;;;6.00;6.00;;;;;29.16;25.50;99647.19;5068190;28;8832;-74
2022/06/16 07:55:36;;;;;;;;;9.40;9.40;;;;;29.25;25.75;99648.34;5068835;28;8855;-74
2022/06/16 07:58:05;;;;;;;;;6.80;5.80;;;;;29.25;25.27;99649.19;5101473;27;8876;-73
2022/06/16 08:00:36;;;;;;;;;6.00;6.00;;;;;29.28;25.37;99656.13;5128912;27;8863;-73
2022/06/16 08:03:04;;;;;;;;;7.00;5.80;;;;;29.38;24.69;99640.16;5129393;27;8857;-74
2022/06/16 08:05:33;;;;;;;;;8.80;8.60;;;;;29.43;25.23;99651.41;5128794;27;8868;-74
2022/06/16 08:08:02;;;;;;;;;7.80;7.20;;;;;29.43;25.34;99644.19;5130786;27;8941;-76
2022/06/16 08:10:35;;;;;;;;;7.40;7.40;;;;;29.51;25.30;99649.84;5125843;27;8872;-75
2022/06/16 08:13:04;;;;;;;;;7.80;7.20;;;;;29.61;25.62;99647.28;5138407;27;8843;-75
2022/06/16 08:15:32;;;;;;;;;8.00;8.00;;;;;29.60;26.14;99647.41;5126043;27;8977;-74
2022/06/16 08:18:01;;;;;;;;;9.00;8.80;;;;;29.72;26.40;99649.16;5146313;27;8981;-74
2022/06/16 08:20:30;;;;;;;;;10.20;10.20;;;;;29.78;27.01;99643.31;5120584;27;8836;-76
2022/06/16 08:23:00;;;;;;;;;13.00;12.00;;;;;29.26;26.78;99641.97;5129384;27;8987;-74
2022/06/16 08:25:29;;;;;;;;;10.80;10.20;;;;;28.74;27.64;99638.69;5127559;27;8884;-75
2022/06/16 08:28:02;;;;;;;;;12.60;12.00;;;;;28.82;27.40;99641.66;5138539;27;8842;-74
2022/06/16 08:30:33;;;;;;;;;13.00;13.00;;;;;28.84;27.96;99645.09;5132111;27;8844;-74
2022/06/16 08:33:03;;;;;;;;;15.80;15.60;;;;;29.00;27.72;99646.59;5125527;27;8875;-73
2022/06/16 08:35:31;;;;;;;;;12.20;12.20;;;;;28.89;28.23;99647.44;5142981;27;8890;-74
2022/06/16 08:38:00;;;;;;;;;10.00;10.00;;;;;28.94;27.81;99638.06;5110169;27;8847;-75
2022/06/16 08:40:30;;;;;;;;;14.00;12.00;;;;;29.15;27.98;99651.72;5149345;27;8865;-74
2022/06/16 08:43:05;;;;;;;;;14.80;14.80;;;;;29.32;27.68;99650.41;5149217;27;8961;-74
2022/06/16 08:45:37;;;;;;;;;8.80;8.80;;;;;29.53;27.52;99644.38;5149976;27;8981;-74
2022/06/16 08:48:21;;;;;;;;;12.00;12.00;;;;;29.70;27.40;99648.41;5150291;27;8961;-75
2022/06/16 08:50:55;;;;;;;;;11.80;11.80;;;;;29.88;26.82;99643.44;5120867;27;9948;-75
2022/06/16 08:53:46;;;;;;;;;10.60;10.00;;;;;29.99;26.58;99650.66;5150324;27;8855;-75
2022/06/16 08:56:20;;;;;;;;;10.80;10.80;;;;;29.87;26.22;99642.59;5101184;27;8859;-73
2022/06/16 08:58:58;;;;;;;;;12.80;12.80;;;;;29.98;26.55;99644.44;5095525;27;8974;-73
2022/06/16 09:01:36;;;;;;;;;11.40;10.40;;;;;30.05;25.94;99642.09;5098186;27;8943;-73
2022/06/16 09:04:10;;;;;;;;;10.00;10.00;;;;;30.00;25.09;99646.97;5127640;27;8861;-73
2022/06/16 09:06:51;;;;;;;;;12.20;10.80;;;;;30.05;25.46;99648.31;5125633;27;9575;-71
2022/06/16 09:12:38;;;;;;;;;9.60;9.40;;;;;30.15;25.11;99644.88;5127861;27;8930;-71
2022/06/16 09:15:22;;;;;;;;;10.60;9.80;;;;;30.15;26.65;99643.03;5128021;27;8902;-73
2022/06/16 09:18:07;;;;;;;;;10.00;9.40;;;;;30.18;24.91;99642.81;5108974;27;8861;-74
2022/06/16 09:20:42;;;;;;;;;7.60;7.60;;;;;30.11;24.40;99645.16;5111915;28;8860;-72
2022/06/16 09:23:28;;;;;;;;;11.00;10.80;;;;;30.21;24.20;99630.94;5107959;28;8864;-73
2022/06/16 09:26:10;;;;;;;;;7.80;7.80;;;;;30.25;24.80;99635.09;5107730;28;8871;-74
2022/06/16 09:28:45;;;;;;;;;8.40;8.40;;;;;30.31;24.80;99646.22;5125964;27;8844;-73
2022/06/16 09:31:21;;;;;;;;;6.60;6.40;;;;;30.27;24.72;99639.38;5128087;27;8884;-72
2022/06/16 09:33:55;;;;;;;;;7.40;7.40;;;;;30.18;24.22;99642.81;5131750;27;8876;-71
2022/06/16 09:36:29;;;;;;;;;6.60;6.60;;;;;30.17;24.77;99629.47;5132462;27;8944;-74
2022/06/16 09:39:03;;;;;;;;;9.60;9.60;;;;;30.18;25.33;99632.03;5132423;27;9567;-73
2022/06/16 09:44:50;;;;;;;;;6.00;6.00;;;;;30.11;24.26;99638.91;5118659;27;8922;-75
2022/06/16 09:47:28;;;;;;;;;10.20;10.20;;;;;29.95;25.05;99633.91;5133848;27;8847;-75
2022/06/16 09:50:04;;;;;;;;;9.20;9.20;;;;;30.01;25.09;99633.41;5135929;27;8836;-72
2022/06/16 09:52:39;;;;;;;;;6.00;6.00;;;;;30.06;25.17;99633.06;5120871;27;8839;-72
2022/06/16 09:55:14;;;;;;;;;8.80;8.80;;;;;30.02;24.26;99632.44;5152914;27;8859;-72
2022/06/16 09:57:48;;;;;;;;;6.00;6.00;;;;;30.04;24.46;99627.78;5152679;27;8851;-73
2022/06/16 10:00:20;;;;;;;;;6.00;5.20;;;;;30.12;25.87;99627.16;5152920;27;8843;-74
2022/06/16 10:02:53;;;;;;;;;8.80;8.80;;;;;30.11;25.53;99617.38;5152451;27;8843;-73
2022/06/16 10:05:35;;;;;;;;;10.40;9.40;;;;;30.08;25.93;99623.03;5151024;27;8832;-72
2022/06/16 10:08:11;;;;;;;;;9.20;8.20;;;;;29.82;25.30;99625.97;5129466;27;8854;-74
2022/06/16 10:10:47;;;;;;;;;6.80;6.80;;;;;29.90;25.04;99622.66;5121166;27;8839;-72
2022/06/16 10:13:26;;;;;;;;;10.60;9.80;;;;;30.00;24.71;99620.06;5087058;27;8976;-73
2022/06/16 10:16:04;;;;;;;;;9.80;8.80;;;;;29.98;25.07;99619.34;5131464;27;8841;-74
2022/06/16 10:18:34;;;;;;;;;9.00;9.00;;;;;30.01;25.22;99613.72;5134283;27;8839;-74
2022/06/16 10:21:07;;;;;;;;;2.40;2.40;;;;;30.06;24.76;99619.59;5152201;27;8839;-73
2022/06/16 10:23:42;;;;;;;;;7.00;7.00;;;;;30.12;24.76;99613.72;5120741;27;8844;-72
2022/06/16 10:26:12;;;;;;;;;7.60;7.60;;;;;30.16;24.68;99609.81;5110293;27;8870;-73
2022/06/16 10:29:00;;;;;;;;;12.00;12.00;;;;;30.18;23.70;99618.59;5110788;27;8870;-73
2022/06/16 10:31:40;;;;;;;;;8.60;8.60;;;;;30.10;24.19;99610.31;5110717;28;8828;-72
2022/06/16 10:34:21;;;;;;;;;7.20;7.20;;;;;30.20;23.82;99613.94;5140786;27;8974;-73
2022/06/16 10:36:57;;;;;;;;;9.40;8.20;;;;;30.24;23.71;99614.56;5132025;27;8846;-75
2022/06/16 10:39:34;;;;;;;;;7.40;7.40;;;;;30.22;23.24;99605.75;5136551;27;8960;-73
2022/06/16 10:42:12;;;;;;;;;13.00;12.40;;;;;30.30;25.26;99612.22;5151693;27;8839;-73
2022/06/16 10:44:41;;;;;;;;;7.40;7.20;;;;;30.38;23.21;99613.44;5138853;27;8884;-74
2022/06/16 10:47:20;;;;;;;;;9.40;9.40;;;;;30.29;23.58;99610.50;5123298;27;8843;-81
2022/06/16 10:49:51;;;;;;;;;7.40;7.40;;;;;30.26;23.16;99607.22;5141009;27;8843;-79
2022/06/16 10:52:30;;;;;;;;;7.00;7.00;;;;;30.27;23.20;99617.00;5100354;28;8855;-79
2022/06/16 10:55:05;;;;;;;;;8.20;7.80;;;;;30.46;23.89;99619.06;5080619;27;8890;-79
2022/06/16 10:57:42;;;;;;;;;13.80;13.00;;;;;30.56;23.50;99614.63;5129186;27;9618;-79
2022/06/16 11:00:14;;;;;;;;;6.20;6.20;;;;;30.62;22.66;99622.19;5131837;27;8963;-77
2022/06/16 11:02:57;;;;;;;;;7.00;6.60;;;;;30.74;21.72;99617.63;5131542;27;9053;-77
2022/06/16 11:05:29;;;;;;;;;8.00;6.80;;;;;30.88;22.14;99613.78;5145874;27;8843;-80
2022/06/16 11:08:10;;;;;;;;;6.80;6.80;;;;;31.09;22.93;99608.44;5108453;28;8937;-79
2022/06/16 11:11:00;;;;;;;;;5.60;5.60;;;;;31.33;21.20;99604.63;5108994;28;8874;-82
2022/06/16 11:13:32;;;;;;;;;7.80;7.80;;;;;31.52;20.83;99604.75;5092168;28;8863;-78
2022/06/16 11:16:07;;;;;;;;;7.00;6.80;;;;;31.59;21.13;99595.16;5058482;28;8844;-77
2022/06/16 11:18:38;;;;;;;;;7.00;6.80;;;;;31.71;20.98;99598.63;5075262;28;8852;-78
2022/06/16 11:21:20;;;;;;;;;7.00;7.00;;;;;31.88;21.08;99593.56;5074056;28;8974;-80
2022/06/16 11:23:52;;;;;;;;;7.20;7.20;;;;;31.97;20.83;99598.16;5108277;28;8836;-78
2022/06/16 11:26:24;;;;;;;;;5.40;5.40;;;;;32.17;20.96;99594.53;5107811;28;8855;-76
2022/06/16 11:28:55;;;;;;;;;6.00;6.00;;;;;32.47;19.66;99600.00;5107974;28;8912;-77
2022/06/16 11:31:40;;;;;;;;;6.80;6.80;;;;;32.80;19.26;99599.63;5090895;28;8871;-78
2022/06/16 11:34:15;;;;;;;;;6.00;6.00;;;;;33.05;19.34;99596.47;5107721;28;8824;-77
2022/06/16 11:37:24;;;;;;;;;5.60;5.60;;;;;33.24;18.65;99588.38;5107310;28;8860;-79
2022/06/16 11:40:03;;;;;;;;;7.60;7.40;;;;;33.31;19.63;99586.78;5141485;27;8873;-78
2022/06/16 11:42:46;;;;;;;;;7.80;7.80;;;;;33.59;18.12;99582.28;5132623;27;8875;-78
2022/06/16 11:45:24;;;;;;;;;7.60;7.60;;;;;33.82;18.30;99576.53;5116114;27;8935;-79
2022/06/16 11:48:03;;;;;;;;;6.60;6.60;;;;;34.09;18.70;99574.81;5115596;27;8935;-78
2022/06/16 11:50:40;;;;;;;;;7.80;7.80;;;;;34.33;18.67;99575.13;5132349;27;8911;-79
2022/06/16 11:53:24;;;;;;;;;6.00;6.00;;;;;34.63;17.57;99567.59;5089805;28;8893;-79
2022/06/16 11:56:00;;;;;;;;;9.40;6.80;;;;;34.93;17.62;99574.50;5040808;28;8901;-79
2022/06/16 11:58:55;;;;;;;;;7.80;7.80;;;;;35.29;18.34;99563.59;5090498;28;8967;-78
2022/06/16 12:01:35;;;;;;;;;8.00;8.00;;;;;35.65;17.26;99558.06;5106892;28;8882;-77
2022/06/16 12:04:36;;;;;;;;;7.00;7.00;;;;;35.74;17.66;99553.53;5107057;28;8852;-78
2022/06/16 12:07:23;;;;;;;;;7.00;6.20;;;;;36.04;17.77;99559.41;5089000;28;8990;-78
2022/06/16 12:10:03;;;;;;;;;9.20;7.60;;;;;36.46;17.12;99556.63;5107178;28;8815;-80
2022/06/16 12:12:48;;;;;;;;;7.20;7.20;;;;;36.82;17.09;99550.06;5090030;28;8832;-80
2022/06/16 12:15:29;;;;;;;;;7.00;7.00;;;;;37.34;16.54;99549.69;5106782;28;8885;-78
2022/06/16 12:18:12;;;;;;;;;6.60;6.40;;;;;37.87;16.15;99539.16;5091946;28;8851;-79
2022/06/16 12:20:54;;;;;;;;;7.75;7.75;;;;;38.27;15.66;99530.94;5108278;28;8843;-79
2022/06/16 12:23:29;;;;;;;;;10.50;10.25;;;;;38.76;15.72;99525.16;5078407;27;8844;-79
2022/06/16 12:26:06;;;;;;;;;8.50;8.50;;;;;39.27;14.47;99533.53;5151871;27;8969;-78
2022/06/16 12:28:46;;;;;;;;;8.00;8.00;;;;;39.74;14.04;99537.78;5151490;27;8989;-79
2022/06/16 12:31:20;;;;;;;;;7.25;7.00;;;;;39.94;15.04;99532.56;5151720;27;8961;-79
2022/06/16 12:34:01;;;;;;;;;7.75;7.25;;;;;40.39;14.38;99534.34;5151259;27;8840;-78
2022/06/16 12:36:36;;;;;;;;;5.75;5.75;;;;;40.57;14.21;99528.41;5151697;27;8898;-80
2022/06/16 12:39:10;;;;;;;;;8.75;8.75;;;;;40.42;14.14;99523.00;5154223;27;8855;-80
2022/06/16 12:41:45;;;;;;;;;3.25;3.25;;;;;40.21;13.83;99519.22;5151468;27;8919;-78
2022/06/16 12:44:19;;;;;;;;;8.00;7.25;;;;;40.66;14.04;99517.13;5099521;27;8874;-79
2022/06/16 12:46:52;;;;;;;;;6.50;6.50;;;;;40.87;13.93;99512.72;5133504;27;8878;-78
2022/06/16 12:49:27;;;;;;;;;6.75;6.25;;;;;41.32;13.79;99509.69;5150469;27;9684;-78
2022/06/16 12:52:02;;;;;;;;;7.25;7.25;;;;;41.60;13.52;99504.13;5150256;27;8905;-77
2022/06/16 12:54:40;;;;;;;;;8.50;8.25;;;;;42.15;13.24;99504.16;5150351;27;8839;-79